createdAt,value
2019-06-01T00:01:44.815Z,2.52
2019-06-01T00:04:13.076Z,2.85
2019-06-01T00:06:42.702Z,2.52
2019-06-01T00:09:11.135Z,2.87
2019-06-01T00:11:39.461Z,3.02
2019-06-01T00:14:07.831Z,3.30
2019-06-01T00:16:36.141Z,3.33
2019-06-01T00:19:04.436Z,3.40
2019-06-01T00:21:32.718Z,3.20
2019-06-01T00:24:01.025Z,3.55
2019-06-01T00:26:29.337Z,4.00
2019-06-01T00:28:57.638Z,4.60
2019-06-01T00:31:25.950Z,5.00
2019-06-01T00:33:54.242Z,4.65
2019-06-01T00:36:22.574Z,4.20
2019-06-01T00:38:52.013Z,4.35
2019-06-01T00:41:21.287Z,4.10
2019-06-01T00:43:50.464Z,4.12
2019-06-01T00:46:18.929Z,4.60
2019-06-01T00:48:47.874Z,3.87
2019-06-01T00:51:16.148Z,3.87
2019-06-01T00:53:45.365Z,3.90
2019-06-01T00:56:13.746Z,3.15
2019-06-01T00:58:43.543Z,2.90
2019-06-01T01:01:12.836Z,3.22
2019-06-01T01:03:41.152Z,2.75
2019-06-01T01:06:09.517Z,3.22
2019-06-01T01:08:37.899Z,3.30
2019-06-01T01:11:06.182Z,3.55
2019-06-01T01:13:34.570Z,3.42
2019-06-01T01:16:02.863Z,3.35
2019-06-01T01:18:31.858Z,3.27
2019-06-01T01:21:00.191Z,3.55
2019-06-01T01:23:28.516Z,3.20
2019-06-01T01:25:56.842Z,3.40
2019-06-01T01:28:25.133Z,4.08
2019-06-01T01:31:08.350Z,3.75
2019-06-01T01:33:23.467Z,3.40
2019-06-01T01:35:52.598Z,3.72
2019-06-01T01:38:21.848Z,3.52
2019-06-01T01:40:50.221Z,3.08
2019-06-01T01:43:18.567Z,3.70
2019-06-01T01:45:46.855Z,3.33
2019-06-01T01:48:15.209Z,3.95
2019-06-01T01:50:43.457Z,3.05
2019-06-01T01:53:11.837Z,3.80
2019-06-01T01:55:40.155Z,3.62
2019-06-01T01:58:08.540Z,3.45
2019-06-01T02:00:39.404Z,3.42
2019-06-01T02:03:08.140Z,3.35
2019-06-01T02:05:36.582Z,3.70
2019-06-01T02:08:05.940Z,3.65
2019-06-01T02:10:34.387Z,3.70
2019-06-01T02:13:02.781Z,3.85
2019-06-01T02:15:31.159Z,3.65
2019-06-01T02:18:00.589Z,3.42
2019-06-01T02:20:29.114Z,3.77
2019-06-01T02:22:58.829Z,3.50
2019-06-01T02:25:27.454Z,3.40
2019-06-01T02:27:57.200Z,3.60
2019-06-01T02:30:25.773Z,4.15
2019-06-01T02:32:56.007Z,3.70
2019-06-01T02:35:24.178Z,3.70
2019-06-01T02:37:54.493Z,3.65
2019-06-01T02:40:24.245Z,3.70
2019-06-01T02:42:52.630Z,4.05
2019-06-01T02:45:21.157Z,3.40
2019-06-01T02:47:49.449Z,3.37
2019-06-01T02:50:17.856Z,3.80
2019-06-01T02:52:46.198Z,3.58
2019-06-01T02:55:17.379Z,3.40
2019-06-01T02:57:45.899Z,3.27
2019-06-01T03:00:16.930Z,3.55
2019-06-01T03:02:45.880Z,3.47
2019-06-01T03:05:14.547Z,3.37
2019-06-01T03:07:43.996Z,3.47
2019-06-01T03:10:12.900Z,3.40
2019-06-01T03:12:43.635Z,3.10
2019-06-01T03:15:12.506Z,3.35
2019-06-01T03:17:43.985Z,3.25
2019-06-01T03:20:14.204Z,3.60
2019-06-01T03:22:43.272Z,3.25
2019-06-01T03:25:12.347Z,3.40
2019-06-01T03:27:42.390Z,3.37
2019-06-01T03:30:15.288Z,3.80
2019-06-01T03:32:42.225Z,3.02
2019-06-01T03:35:10.547Z,3.22
2019-06-01T03:37:38.915Z,3.50
2019-06-01T03:40:15.776Z,3.58
2019-06-01T03:42:38.289Z,3.45
2019-06-01T03:45:07.647Z,3.42
2019-06-01T03:47:36.111Z,3.20
2019-06-01T03:50:06.915Z,3.30
2019-06-01T03:52:35.375Z,3.50
2019-06-01T03:55:05.856Z,3.12
2019-06-01T03:57:34.410Z,2.75
2019-06-01T04:00:03.348Z,2.87
2019-06-01T04:02:33.424Z,3.33
2019-06-01T04:05:03.542Z,3.80
2019-06-01T04:07:32.083Z,3.33
2019-06-01T04:10:01.635Z,3.27
2019-06-01T04:12:30.304Z,3.65
2019-06-01T04:14:58.632Z,3.47
2019-06-01T04:17:27.009Z,3.37
2019-06-01T04:19:55.299Z,3.20
2019-06-01T04:22:23.740Z,3.70
2019-06-01T04:24:52.026Z,3.15
2019-06-01T04:27:20.390Z,3.27
2019-06-01T04:29:48.933Z,3.45
2019-06-01T04:32:17.519Z,3.52
2019-06-01T04:34:45.927Z,3.20
2019-06-01T04:37:14.211Z,3.60
2019-06-01T04:39:42.549Z,3.70
2019-06-01T04:42:11.873Z,3.37
2019-06-01T04:44:40.237Z,3.67
2019-06-01T04:47:09.269Z,3.37
2019-06-01T04:49:38.778Z,3.60
2019-06-01T04:52:07.078Z,3.70
2019-06-01T04:54:35.385Z,3.42
2019-06-01T04:57:04.767Z,3.37
2019-06-01T04:59:33.111Z,3.37
2019-06-01T05:02:01.439Z,3.52
2019-06-01T05:04:29.743Z,3.25
2019-06-01T05:06:58.057Z,3.10
2019-06-01T05:09:26.375Z,3.12
2019-06-01T05:11:54.713Z,3.08
2019-06-01T05:14:23.021Z,3.80
2019-06-01T05:16:51.359Z,3.83
2019-06-01T05:19:19.986Z,3.30
2019-06-01T05:21:48.291Z,3.52
2019-06-01T05:24:17.286Z,3.35
2019-06-01T05:26:45.707Z,3.60
2019-06-01T05:29:14.008Z,3.25
2019-06-01T05:31:42.430Z,3.50
2019-06-01T05:34:11.819Z,3.75
2019-06-01T05:36:40.277Z,3.10
2019-06-01T05:39:08.651Z,3.65
2019-06-01T05:41:36.989Z,3.12
2019-06-01T05:44:05.363Z,3.72
2019-06-01T05:46:33.736Z,3.50
2019-06-01T05:49:02.148Z,3.50
2019-06-01T05:51:30.538Z,4.10
2019-06-01T05:53:58.902Z,3.75
2019-06-01T05:56:27.289Z,3.67
2019-06-01T05:58:55.592Z,3.60
2019-06-01T06:01:23.884Z,3.55
2019-06-01T06:03:52.202Z,4.05
2019-06-01T06:06:20.530Z,3.35
2019-06-01T06:08:48.849Z,3.80
2019-06-01T06:11:17.146Z,4.10
2019-06-01T06:13:45.467Z,3.50
2019-06-01T06:16:13.889Z,3.22
2019-06-01T06:18:42.154Z,3.17
2019-06-01T06:21:10.494Z,3.40
2019-06-01T06:23:38.839Z,2.98
2019-06-01T06:26:07.173Z,3.33
2019-06-01T06:28:35.538Z,3.12
2019-06-01T06:31:03.913Z,2.80
2019-06-01T06:33:32.208Z,3.02
2019-06-01T06:36:00.648Z,3.33
2019-06-01T06:38:28.981Z,3.55
2019-06-01T06:40:57.348Z,3.15
2019-06-01T06:43:32.654Z,2.98
2019-06-01T06:45:55.687Z,3.10
2019-06-01T06:48:25.200Z,2.98
2019-06-01T06:50:53.597Z,2.80
2019-06-01T06:53:29.823Z,2.72
2019-06-01T06:55:52.016Z,2.90
2019-06-01T06:58:21.011Z,2.77
2019-06-01T07:00:49.716Z,2.47
2019-06-01T07:03:18.925Z,2.27
2019-06-01T07:05:47.395Z,2.80
2019-06-01T07:08:17.595Z,2.40
2019-06-01T07:10:46.038Z,2.47
2019-06-01T07:13:14.509Z,1.90
2019-06-01T07:15:42.873Z,2.05
2019-06-01T07:18:11.247Z,2.12
2019-06-01T07:20:39.575Z,2.35
2019-06-01T07:23:07.857Z,2.00
2019-06-01T07:25:36.223Z,1.90
2019-06-01T07:28:04.978Z,2.05
2019-06-01T07:30:49.476Z,1.70
2019-06-01T07:33:04.588Z,1.50
2019-06-01T07:35:32.899Z,1.60
2019-06-01T07:38:01.317Z,1.50
2019-06-01T07:40:29.680Z,1.60
2019-06-01T07:42:57.974Z,1.75
2019-06-01T07:45:26.956Z,1.47
2019-06-01T07:47:55.354Z,1.30
2019-06-01T07:50:23.984Z,1.70
2019-06-01T07:52:52.330Z,1.60
2019-06-01T07:55:21.409Z,1.60
2019-06-01T07:57:49.926Z,1.50
2019-06-01T08:00:18.351Z,1.60
2019-06-01T08:02:46.828Z,1.72
2019-06-01T08:05:15.195Z,1.40
2019-06-01T08:07:43.478Z,1.40
2019-06-01T08:10:12.079Z,1.20
2019-06-01T08:12:40.405Z,1.10
2019-06-01T08:15:08.893Z,1.30
2019-06-01T08:17:37.276Z,1.47
2019-06-01T08:20:08.722Z,1.37
2019-06-01T08:22:37.017Z,1.22
2019-06-01T08:25:06.934Z,1.35
2019-06-01T08:27:35.225Z,1.20
2019-06-01T08:30:05.598Z,1.20
2019-06-01T08:32:34.005Z,1.27
2019-06-01T08:35:08.651Z,1.25
2019-06-01T08:37:33.581Z,1.22
2019-06-01T08:40:02.055Z,1.12
2019-06-01T08:42:31.545Z,1.10
2019-06-01T08:45:00.015Z,1.00
2019-06-01T08:47:28.324Z,1.10
2019-06-01T08:49:56.655Z,1.07
2019-06-01T08:52:25.976Z,1.07
2019-06-01T08:54:54.343Z,0.88
2019-06-01T08:57:24.100Z,0.88
2019-06-01T08:59:52.445Z,1.10
2019-06-01T09:02:20.752Z,0.90
2019-06-01T09:04:49.052Z,0.93
2019-06-01T09:07:17.513Z,0.80
2019-06-01T09:09:45.879Z,1.00
2019-06-01T09:12:14.325Z,0.80
2019-06-01T09:14:42.608Z,1.00
2019-06-01T09:17:11.102Z,1.10
2019-06-01T09:19:39.392Z,0.90
2019-06-01T09:22:06.792Z,1.00
2019-06-01T09:24:36.196Z,0.78
2019-06-01T09:27:04.892Z,1.00
2019-06-01T09:29:34.075Z,0.80
2019-06-01T09:32:02.522Z,0.70
2019-06-01T09:34:30.796Z,1.00
2019-06-01T09:36:59.095Z,0.80
2019-06-01T09:39:28.994Z,0.78
2019-06-01T09:41:57.418Z,0.70
2019-06-01T09:44:26.861Z,0.90
2019-06-01T09:46:55.228Z,0.75
2019-06-01T09:49:23.584Z,0.70
2019-06-01T09:51:51.893Z,1.00
2019-06-01T09:54:20.237Z,0.95
2019-06-01T09:56:48.547Z,1.10
2019-06-01T09:59:16.864Z,0.80
2019-06-01T10:01:45.214Z,1.02
2019-06-01T10:04:13.579Z,0.88
2019-06-01T10:06:41.899Z,0.80
2019-06-01T10:09:10.259Z,0.80
2019-06-01T10:11:38.664Z,0.62
2019-06-01T10:14:07.092Z,0.90
2019-06-01T10:16:36.781Z,0.70
2019-06-01T10:19:05.276Z,0.70
2019-06-01T10:21:33.964Z,0.62
2019-06-01T10:24:02.388Z,0.80
2019-06-01T10:26:31.339Z,0.70
2019-06-01T10:28:59.797Z,0.65
2019-06-01T10:31:28.112Z,0.45
2019-06-01T10:33:56.497Z,0.70
2019-06-01T10:36:24.796Z,0.80
2019-06-01T10:38:53.175Z,1.10
2019-06-01T10:41:21.477Z,0.80
2019-06-01T10:43:49.764Z,0.80
2019-06-01T10:46:18.077Z,0.80
2019-06-01T10:48:46.380Z,0.78
2019-06-01T10:51:14.706Z,0.60
2019-06-01T10:53:43.834Z,0.60
2019-06-01T10:56:12.277Z,0.75
2019-06-01T10:58:57.637Z,0.70
2019-06-01T11:01:10.559Z,0.80
2019-06-01T11:03:38.859Z,0.70
2019-06-01T11:06:07.221Z,0.50
2019-06-01T11:08:37.024Z,0.88
2019-06-01T11:11:05.516Z,0.72
2019-06-01T11:13:35.020Z,0.60
2019-06-01T11:16:03.455Z,0.60
2019-06-01T11:18:33.128Z,0.60
2019-06-01T11:21:01.591Z,0.60
2019-06-01T11:23:29.915Z,0.62
2019-06-01T11:25:58.233Z,1.35
2019-06-01T11:28:26.516Z,2.67
2019-06-01T11:30:54.822Z,0.60
2019-06-01T11:33:23.207Z,0.60
2019-06-01T11:35:51.622Z,1.45
2019-06-01T11:38:19.930Z,0.60
2019-06-01T11:40:48.227Z,0.70
2019-06-01T11:43:16.532Z,0.50
2019-06-01T11:45:45.249Z,0.40
2019-06-01T11:48:13.689Z,0.53
2019-06-01T11:50:43.120Z,0.50
2019-06-01T11:53:11.473Z,0.60
2019-06-01T11:55:39.783Z,0.60
2019-06-01T11:58:08.253Z,0.70
2019-06-01T12:00:37.522Z,0.30
2019-06-01T12:05:26.423Z,0.57
2019-06-01T12:07:54.702Z,0.70
2019-06-01T12:10:22.996Z,0.60
2019-06-01T12:12:51.462Z,0.50
2019-06-01T12:15:20.313Z,0.50
2019-06-01T12:17:48.639Z,0.50
2019-06-01T12:20:17.264Z,0.50
2019-06-01T12:22:45.555Z,0.50
2019-06-01T12:25:14.098Z,0.62
2019-06-01T12:27:44.052Z,0.57
2019-06-01T12:30:12.502Z,0.60
2019-06-01T12:32:41.918Z,0.68
2019-06-01T12:35:10.986Z,0.57
2019-06-01T12:37:58.328Z,0.60
2019-06-01T12:40:09.840Z,0.53
2019-06-01T12:42:39.606Z,0.68
2019-06-01T12:45:08.858Z,0.70
2019-06-01T12:47:37.182Z,0.50
2019-06-01T12:50:07.246Z,0.45
2019-06-01T12:52:35.612Z,0.65
2019-06-01T12:55:04.919Z,0.55
2019-06-01T12:57:33.201Z,0.70
2019-06-01T13:00:01.589Z,0.50
2019-06-01T13:02:29.925Z,0.60
2019-06-01T13:04:58.247Z,0.40
2019-06-01T13:07:26.591Z,0.50
2019-06-01T13:09:54.883Z,0.50
2019-06-01T13:12:23.272Z,0.40
2019-06-01T13:14:52.239Z,0.60
2019-06-01T13:17:20.902Z,0.50
2019-06-01T13:19:49.624Z,0.40
2019-06-01T13:22:18.020Z,0.40
2019-06-01T13:24:47.755Z,0.50
2019-06-01T13:27:16.166Z,0.60
2019-06-01T13:29:45.715Z,0.70
2019-06-01T13:32:14.321Z,1.22
2019-06-01T13:34:42.762Z,0.80
2019-06-01T13:37:11.153Z,0.45
2019-06-01T13:39:39.435Z,0.30
2019-06-01T13:42:07.837Z,0.55
2019-06-01T13:44:36.126Z,0.40
2019-06-01T13:47:04.517Z,0.50
2019-06-01T13:49:32.898Z,0.50
2019-06-01T13:52:01.213Z,0.42
2019-06-01T13:54:29.523Z,0.65
2019-06-01T13:56:57.918Z,0.80
2019-06-01T13:59:26.287Z,0.50
2019-06-01T14:01:55.394Z,0.60
2019-06-01T14:04:23.749Z,0.70
2019-06-01T14:06:53.133Z,0.50
2019-06-01T14:09:22.143Z,0.60
2019-06-01T14:11:51.435Z,0.50
2019-06-01T14:14:19.820Z,0.40
2019-06-01T14:16:49.418Z,1.07
2019-06-01T14:19:17.919Z,1.05
2019-06-01T14:21:47.631Z,1.00
2019-06-01T14:24:16.214Z,9.05
2019-06-01T14:26:45.945Z,1.00
2019-06-01T14:29:14.375Z,0.53
2019-06-01T14:31:44.356Z,0.50
2019-06-01T14:34:12.640Z,0.50
2019-06-01T14:36:41.123Z,0.50
2019-06-01T14:39:09.490Z,0.40
2019-06-01T14:41:37.818Z,0.70
2019-06-01T14:44:06.278Z,0.95
2019-06-01T14:46:34.657Z,0.40
2019-06-01T14:49:02.986Z,0.40
2019-06-01T14:51:31.282Z,0.90
2019-06-01T14:53:59.614Z,0.60
2019-06-01T14:56:27.916Z,0.60
2019-06-01T14:58:56.230Z,0.68
2019-06-01T15:01:32.344Z,0.70
2019-06-01T15:03:54.782Z,0.78
2019-06-01T15:06:23.186Z,0.60
2019-06-01T15:09:13.082Z,0.60
2019-06-01T15:11:21.636Z,0.50
2019-06-01T15:13:50.325Z,0.53
2019-06-01T15:16:18.736Z,0.50
2019-06-01T15:18:47.124Z,0.65
2019-06-01T15:21:15.495Z,0.60
2019-06-01T15:23:43.843Z,0.50
2019-06-01T15:26:12.220Z,0.50
2019-06-01T15:28:40.668Z,0.42
2019-06-01T15:31:09.015Z,0.35
2019-06-01T15:33:37.304Z,0.40
2019-06-01T15:36:05.689Z,0.40
2019-06-01T15:38:33.981Z,0.60
2019-06-01T15:41:02.440Z,0.47
2019-06-01T15:43:30.798Z,0.47
2019-06-01T15:45:59.829Z,0.45
2019-06-01T15:48:28.253Z,0.50
2019-06-01T15:51:02.479Z,0.60
2019-06-01T15:53:26.651Z,0.47
2019-06-01T15:55:55.091Z,0.60
2019-06-01T15:58:23.502Z,0.70
2019-06-01T16:00:52.746Z,0.72
2019-06-01T16:03:21.259Z,0.50
2019-06-01T16:05:49.547Z,0.78
2019-06-01T16:08:18.042Z,0.60
2019-06-01T16:10:46.429Z,0.50
2019-06-01T16:13:14.742Z,0.60
2019-06-01T16:15:43.126Z,0.60
2019-06-01T16:18:11.476Z,0.50
2019-06-01T16:20:39.880Z,0.40
2019-06-01T16:23:08.187Z,0.60
2019-06-01T16:25:36.497Z,0.70
2019-06-01T16:28:05.725Z,0.60
2019-06-01T16:30:34.229Z,0.88
2019-06-01T16:33:02.943Z,0.53
2019-06-01T16:35:31.358Z,0.70
2019-06-01T16:38:02.306Z,0.60
2019-06-01T16:40:29.848Z,0.62
2019-06-01T16:42:59.355Z,0.70
2019-06-01T16:45:27.822Z,0.55
2019-06-01T16:47:57.332Z,0.55
2019-06-01T16:50:25.803Z,0.57
2019-06-01T16:52:54.191Z,0.70
2019-06-01T16:55:22.588Z,0.80
2019-06-01T16:57:50.978Z,0.55
2019-06-01T17:00:19.768Z,0.60
2019-06-01T17:02:48.078Z,0.78
2019-06-01T17:05:16.486Z,0.75
2019-06-01T17:07:44.807Z,1.62
2019-06-01T17:10:25.823Z,0.60
2019-06-01T17:12:44.595Z,0.70
2019-06-01T17:15:13.059Z,0.90
2019-06-01T17:17:41.529Z,0.60
2019-06-01T17:20:32.653Z,0.55
2019-06-01T17:23:02.927Z,0.60
2019-06-01T17:25:31.025Z,0.70
2019-06-01T17:28:00.152Z,0.78
2019-06-01T17:30:28.611Z,0.60
2019-06-01T17:32:58.120Z,0.60
2019-06-01T17:35:26.619Z,0.68
2019-06-01T17:37:54.944Z,0.80
2019-06-01T17:40:36.571Z,0.60
2019-06-01T17:42:53.499Z,0.70
2019-06-01T17:45:21.834Z,0.60
2019-06-01T17:47:50.161Z,0.80
2019-06-01T17:50:20.272Z,0.70
2019-06-01T17:52:48.698Z,0.70
2019-06-01T17:55:35.375Z,0.70
2019-06-01T17:58:05.451Z,0.70
2019-06-01T18:00:34.034Z,1.20
2019-06-01T18:03:03.486Z,0.90
2019-06-01T18:05:32.146Z,0.60
2019-06-01T18:08:01.759Z,0.60
2019-06-01T18:10:30.163Z,0.90
2019-06-01T18:12:58.560Z,0.60
2019-06-01T18:15:27.249Z,0.70
2019-06-01T18:17:55.634Z,0.70
2019-06-01T18:20:23.956Z,1.20
2019-06-01T18:22:52.322Z,0.70
2019-06-01T18:25:23.211Z,1.00
2019-06-01T18:27:51.628Z,0.85
2019-06-01T18:30:20.237Z,0.80
2019-06-01T18:32:48.785Z,0.70
2019-06-01T18:35:19.676Z,0.80
2019-06-01T18:37:47.295Z,1.15
2019-06-01T18:40:17.063Z,1.02
2019-06-01T18:42:47.123Z,1.70
2019-06-01T18:45:16.363Z,6.53
2019-06-01T18:47:44.954Z,12.80
2019-06-01T18:50:16.162Z,1.62
2019-06-01T18:52:43.901Z,2.47
2019-06-01T18:55:12.716Z,1.15
2019-06-01T18:57:42.208Z,1.55
2019-06-01T19:00:13.845Z,4.17
2019-06-01T19:02:42.284Z,7.97
2019-06-01T19:05:11.148Z,11.48
2019-06-01T19:07:39.430Z,5.60
2019-06-01T19:10:09.475Z,5.08
2019-06-01T19:12:37.897Z,2.30
2019-06-01T19:15:23.217Z,3.70
2019-06-01T19:17:39.541Z,2.92
2019-06-01T19:20:08.697Z,1.90
2019-06-01T19:22:37.144Z,1.80
2019-06-01T19:25:06.676Z,1.25
2019-06-01T19:27:35.249Z,1.62
2019-06-01T19:30:04.809Z,1.65
2019-06-01T19:32:33.211Z,1.90
2019-06-01T19:35:01.681Z,4.47
2019-06-01T19:37:30.055Z,2.85
2019-06-01T19:39:58.739Z,1.50
2019-06-01T19:42:27.142Z,1.30
2019-06-01T19:44:55.449Z,1.37
2019-06-01T19:47:23.918Z,1.25
2019-06-01T19:49:52.234Z,1.30
2019-06-01T19:52:20.636Z,1.65
2019-06-01T19:54:49.115Z,1.60
2019-06-01T19:57:21.416Z,1.60
2019-06-01T19:59:47.648Z,1.52
2019-06-01T20:02:29.308Z,2.22
2019-06-01T20:04:46.230Z,2.70
2019-06-01T20:07:15.136Z,2.47
2019-06-01T20:09:43.525Z,2.15
2019-06-01T20:12:16.352Z,1.90
2019-06-01T20:14:41.950Z,2.10
2019-06-01T20:17:11.737Z,2.08
2019-06-01T20:19:40.077Z,2.00
2019-06-01T20:22:08.540Z,1.72
2019-06-01T20:24:36.832Z,2.12
2019-06-01T20:27:05.221Z,1.98
2019-06-01T20:29:33.612Z,2.02
2019-06-01T20:32:01.955Z,2.58
2019-06-01T20:34:30.492Z,2.50
2019-06-01T20:36:58.803Z,2.15
2019-06-01T20:39:27.237Z,5.65
2019-06-01T20:41:55.537Z,3.55
2019-06-01T20:44:23.931Z,3.40
2019-06-01T20:46:52.275Z,2.10
2019-06-01T20:49:20.758Z,4.35
2019-06-01T20:51:49.112Z,5.17
2019-06-01T20:54:17.437Z,4.30
2019-06-01T20:56:45.752Z,2.22
2019-06-01T20:59:17.190Z,2.25
2019-06-01T21:01:44.238Z,1.87
2019-06-01T21:04:14.069Z,1.75
2019-06-01T21:06:42.460Z,1.50
2019-06-01T21:09:10.858Z,1.72
2019-06-01T21:11:39.226Z,1.90
2019-06-01T21:14:07.628Z,2.20
2019-06-01T21:16:35.999Z,3.70
2019-06-01T21:19:04.552Z,2.65
2019-06-01T21:21:32.903Z,9.00
2019-06-01T21:24:01.215Z,13.10
2019-06-01T21:26:32.593Z,5.80
2019-06-01T21:29:00.977Z,4.97
2019-06-01T21:31:29.347Z,4.42
2019-06-01T21:33:57.737Z,3.20
2019-06-01T21:36:26.084Z,2.52
2019-06-01T21:38:54.383Z,2.47
2019-06-01T21:41:23.728Z,2.75
2019-06-01T21:43:52.272Z,2.95
2019-06-01T21:46:21.705Z,2.37
2019-06-01T21:48:50.034Z,2.87
2019-06-01T21:51:18.369Z,2.70
2019-06-01T21:53:46.736Z,3.15
2019-06-01T21:56:18.322Z,2.77
2019-06-01T21:58:45.204Z,3.10
2019-06-01T22:01:13.751Z,2.12
2019-06-01T22:03:42.086Z,2.60
2019-06-01T22:06:10.404Z,2.30
2019-06-01T22:08:38.714Z,2.30
2019-06-01T22:11:07.015Z,2.47
2019-06-01T22:13:35.324Z,2.25
2019-06-01T22:16:03.737Z,2.37
2019-06-01T22:18:32.101Z,2.40
2019-06-01T22:21:00.430Z,2.40
2019-06-01T22:23:28.768Z,2.58
2019-06-01T22:25:57.106Z,2.80
2019-06-01T22:28:26.337Z,2.25
2019-06-01T22:30:54.770Z,2.72
2019-06-01T22:33:23.197Z,2.37
2019-06-01T22:35:52.473Z,2.77
2019-06-01T22:38:21.636Z,2.80
2019-06-01T22:40:50.083Z,2.60
2019-06-01T22:43:35.152Z,2.50
2019-06-01T22:45:48.669Z,2.40
2019-06-01T22:48:16.987Z,3.08
2019-06-01T22:50:45.308Z,2.47
2019-06-01T22:53:13.601Z,2.60
2019-06-01T22:55:41.992Z,2.50
2019-06-01T22:58:10.390Z,2.33
2019-06-01T23:00:38.709Z,2.52
2019-06-01T23:03:07.192Z,2.72
2019-06-01T23:05:35.495Z,2.75
2019-06-01T23:08:03.883Z,2.60
2019-06-01T23:10:35.444Z,2.85
2019-06-01T23:13:02.221Z,2.72
2019-06-01T23:15:31.907Z,3.08
2019-06-01T23:18:00.263Z,2.90
2019-06-01T23:20:29.914Z,3.30
2019-06-01T23:22:58.458Z,2.62
2019-06-01T23:25:26.817Z,2.60
2019-06-01T23:27:55.132Z,2.92
2019-06-01T23:30:24.287Z,2.60
2019-06-01T23:32:52.591Z,2.80
2019-06-01T23:35:20.921Z,2.62
2019-06-01T23:37:50.380Z,2.92
2019-06-01T23:40:18.915Z,2.90
2019-06-01T23:42:47.299Z,2.98
2019-06-01T23:45:17.040Z,2.75
2019-06-01T23:47:45.460Z,3.50
2019-06-01T23:50:13.844Z,3.10
2019-06-01T23:52:42.150Z,3.00
2019-06-01T23:55:10.583Z,3.15
2019-06-01T23:57:38.905Z,3.12
